Time;durP1;ratioP1;P1;durP2;ratioP2;P2;SDS_P1;SDS_P2;PMS_P1;PMS_P2;Temp;Humidity;BMP_temperature;BMP_pressure;BME280_temperature;BME280_humidity;BME280_pressure;Samples;Min_cycle;Max_cycle;Signal;HPM_P1;HPM_P2
2022/04/13 00:01:11;;;;;;;70.95;9.05;;;;;;;;;;4971488;28;95860;-78
2022/04/13 00:03:37;;;;;;;28.13;7.68;;;;;;;;;;4971153;28;97085;-79
2022/04/13 00:06:04;;;;;;;18.90;7.70;;;;;;;;;;4973913;28;97523;-79
2022/04/13 00:08:31;;;;;;;15.75;7.60;;;;;;;;;;4981694;28;97186;-79
2022/04/13 00:10:57;;;;;;;17.17;7.88;;;;;;;;;;4991624;28;97582;-78
2022/04/13 00:13:23;;;;;;;14.60;7.30;;;;;;;;;;4973460;28;95495;-79
2022/04/13 00:15:50;;;;;;;24.73;7.75;;;;;;;;;;4981682;28;95647;-78
2022/04/13 00:18:16;;;;;;;68.15;9.48;;;;;;;;;;4978616;28;97608;-79
2022/04/13 00:20:42;;;;;;;78.95;10.90;;;;;;;;;;4991228;28;95704;-79
2022/04/13 00:23:09;;;;;;;20.55;7.78;;;;;;;;;;4990673;28;96914;-79
2022/04/13 00:25:38;;;;;;;101.00;11.43;;;;;;;;;;4990533;28;96664;-79
2022/04/13 00:28:07;;;;;;;20.23;7.70;;;;;;;;;;4987027;28;95384;-79
2022/04/13 00:30:33;;;;;;;33.42;7.70;;;;;;;;;;4971141;28;97555;-79
2022/04/13 00:33:01;;;;;;;13.25;7.20;;;;;;;;;;4970515;28;95490;-77
2022/04/13 00:35:28;;;;;;;16.15;7.47;;;;;;;;;;4953729;28;96782;-79
2022/04/13 00:37:54;;;;;;;13.68;7.13;;;;;;;;;;4988784;28;97536;-79
2022/04/13 00:40:20;;;;;;;13.75;6.90;;;;;;;;;;4991104;28;95803;-79
2022/04/13 00:42:47;;;;;;;15.38;6.68;;;;;;;;;;4990656;28;97265;-78
2022/04/13 00:45:13;;;;;;;27.33;7.38;;;;;;;;;;4989726;28;97532;-79
2022/04/13 00:47:40;;;;;;;16.45;7.30;;;;;;;;;;4989323;28;95383;-79
2022/04/13 00:50:07;;;;;;;11.38;6.80;;;;;;;;;;4993663;28;97217;-78
2022/04/13 00:52:35;;;;;;;15.32;7.53;;;;;;;;;;4991037;28;95385;-78
2022/04/13 00:55:02;;;;;;;15.07;7.60;;;;;;;;;;4990607;28;97041;-78
2022/04/13 00:57:29;;;;;;;18.17;7.32;;;;;;;;;;4975585;28;97390;-79
2022/04/13 00:59:56;;;;;;;14.88;7.20;;;;;;;;;;4970926;28;95443;-79
2022/04/13 01:02:23;;;;;;;20.35;7.55;;;;;;;;;;4969406;28;97015;-78
2022/04/13 01:05:09;;;;;;;85.43;10.02;;;;;;;;;;4981844;28;97312;-78
2022/04/13 01:07:35;;;;;;;15.70;6.85;;;;;;;;;;4990423;28;95310;-79
2022/04/13 01:10:05;;;;;;;20.73;7.00;;;;;;;;;;4989956;28;96972;-79
2022/04/13 01:12:33;;;;;;;20.42;7.38;;;;;;;;;;4993563;28;97961;-78
2022/04/13 01:15:18;;;;;;;28.55;8.20;;;;;;;;;;4982930;28;96623;-78
2022/04/13 01:18:01;;;;;;;;;;;;;;;;;;4969009;28;95830;-79
2022/04/13 01:20:28;;;;;;;17.58;7.60;;;;;;;;;;4972965;28;119427;-78
2022/04/13 01:22:54;;;;;;;14.35;6.50;;;;;;;;;;4988622;28;96750;-78
2022/04/13 01:25:21;;;;;;;52.08;8.07;;;;;;;;;;4989488;28;97201;-79
2022/04/13 01:27:48;;;;;;;14.55;6.40;;;;;;;;;;4990609;28;96178;-78
2022/04/13 01:30:14;;;;;;;16.20;6.53;;;;;;;;;;4989439;28;96623;-78
2022/04/13 01:32:40;;;;;;;16.55;7.38;;;;;;;;;;4973095;28;96973;-78
2022/04/13 01:35:07;;;;;;;19.33;6.65;;;;;;;;;;4969800;28;97091;-79
2022/04/13 01:37:34;;;;;;;13.02;7.18;;;;;;;;;;4970747;28;97303;-79
2022/04/13 01:40:01;;;;;;;12.07;7.00;;;;;;;;;;4970294;28;95403;-78
2022/04/13 01:42:28;;;;;;;16.33;7.43;;;;;;;;;;4970286;28;97172;-79
2022/04/13 01:44:54;;;;;;;16.02;6.93;;;;;;;;;;4969713;28;95946;-80
2022/04/13 01:47:19;;;;;;;13.77;7.30;;;;;;;;;;4984974;28;95329;-79
2022/04/13 01:49:45;;;;;;;15.75;6.60;;;;;;;;;;4989774;28;95371;-78
2022/04/13 01:52:12;;;;;;;25.73;7.72;;;;;;;;;;4989134;28;97372;-78
2022/04/13 01:54:57;;;;;;;45.55;8.23;;;;;;;;;;4993036;28;96321;-79
2022/04/13 01:57:23;;;;;;;23.42;7.30;;;;;;;;;;4972361;28;98885;-79
2022/04/13 01:59:49;;;;;;;22.35;7.63;;;;;;;;;;4969680;28;95412;-78
2022/04/13 02:02:16;;;;;;;11.75;7.25;;;;;;;;;;4969185;28;95572;-79
2022/04/13 02:05:02;;;;;;;15.85;7.32;;;;;;;;;;4969950;28;97384;-79
2022/04/13 02:07:28;;;;;;;26.92;7.35;;;;;;;;;;4986875;28;95260;-79
2022/04/13 02:10:13;;;;;;;32.35;8.13;;;;;;;;;;4972069;28;97122;-79
2022/04/13 02:12:41;;;;;;;37.75;8.45;;;;;;;;;;4988415;28;97406;-77
2022/04/13 02:15:09;;;;;;;31.27;8.38;;;;;;;;;;4988457;28;95289;-77
2022/04/13 02:17:37;;;;;;;76.43;10.82;;;;;;;;;;4974098;28;96531;-77
2022/04/13 02:20:07;;;;;;;14.25;7.20;;;;;;;;;;4968531;28;95599;-77
2022/04/13 02:22:34;;;;;;;33.97;8.15;;;;;;;;;;4969831;28;96873;-77
2022/04/13 02:25:16;;;;;;;16.38;8.45;;;;;;;;;;4969082;28;97671;-78
2022/04/13 02:27:42;;;;;;;48.72;10.45;;;;;;;;;;4988182;28;95778;-78
2022/04/13 02:30:08;;;;;;;26.05;9.07;;;;;;;;;;4988866;28;96960;-79
2022/04/13 02:32:39;;;;;;;17.90;9.30;;;;;;;;;;4989114;28;97394;-77
2022/04/13 02:35:06;;;;;;;22.17;9.15;;;;;;;;;;4988603;28;95449;-77
2022/04/13 02:37:32;;;;;;;21.50;10.40;;;;;;;;;;4971804;28;97113;-78
2022/04/13 02:39:58;;;;;;;14.85;8.93;;;;;;;;;;4970685;28;97652;-78
2022/04/13 02:42:30;;;;;;;22.30;9.95;;;;;;;;;;4969166;28;96706;-78
2022/04/13 02:44:56;;;;;;;17.33;10.02;;;;;;;;;;4968942;28;97113;-78
2022/04/13 02:47:23;;;;;;;19.17;9.25;;;;;;;;;;4983713;28;95409;-78
2022/04/13 02:49:49;;;;;;;22.42;10.23;;;;;;;;;;4988702;28;96733;-78
2022/04/13 02:52:15;;;;;;;23.63;10.73;;;;;;;;;;4988440;28;97428;-79
2022/04/13 02:54:41;;;;;;;33.65;10.68;;;;;;;;;;4988624;28;95301;-79
2022/04/13 02:57:08;;;;;;;23.25;11.43;;;;;;;;;;4974425;28;96714;-79
2022/04/13 02:59:34;;;;;;;25.90;11.60;;;;;;;;;;4968951;28;97404;-79
2022/04/13 03:02:00;;;;;;;24.85;11.38;;;;;;;;;;4971209;28;95383;-78
2022/04/13 03:04:28;;;;;;;19.05;10.75;;;;;;;;;;4950515;28;96220;-79
2022/04/13 03:06:54;;;;;;;18.73;10.65;;;;;;;;;;4982685;28;95360;-78
2022/04/13 03:09:20;;;;;;;20.15;10.70;;;;;;;;;;4987432;28;95795;-76
2022/04/13 03:11:47;;;;;;;36.90;11.85;;;;;;;;;;4988481;28;97140;-78
2022/04/13 03:14:13;;;;;;;28.40;14.15;;;;;;;;;;4987726;28;96033;-77
2022/04/13 03:16:39;;;;;;;63.47;18.70;;;;;;;;;;4976333;28;96782;-80
2022/04/13 03:19:06;;;;;;;35.80;21.25;;;;;;;;;;4968349;28;97349;-78
2022/04/13 03:21:32;;;;;;;46.17;27.45;;;;;;;;;;4968582;28;95495;-77
2022/04/13 03:23:59;;;;;;;59.60;32.42;;;;;;;;;;4972114;28;96912;-77
2022/04/13 03:26:26;;;;;;;51.53;34.33;;;;;;;;;;4968219;28;95800;-78
2022/04/13 03:28:52;;;;;;;59.70;36.78;;;;;;;;;;4990860;28;95619;-78
2022/04/13 03:31:36;;;;;;;56.80;35.70;;;;;;;;;;4988837;28;95720;-77
2022/04/13 03:34:02;;;;;;;58.70;35.47;;;;;;;;;;4991821;28;95207;-76
2022/04/13 03:36:28;;;;;;;52.80;33.53;;;;;;;;;;4973316;28;96778;-77
2022/04/13 03:38:54;;;;;;;50.55;31.35;;;;;;;;;;4971312;28;97646;-77
2022/04/13 03:41:21;;;;;;;46.28;30.10;;;;;;;;;;4954003;28;95398;-77
2022/04/13 03:43:47;;;;;;;44.85;26.08;;;;;;;;;;4957241;28;96019;-77
2022/04/13 03:46:13;;;;;;;43.80;24.40;;;;;;;;;;4986002;28;96029;-77
2022/04/13 03:48:40;;;;;;;38.38;20.65;;;;;;;;;;4991831;28;97439;-77
2022/04/13 03:51:06;;;;;;;37.88;19.55;;;;;;;;;;4990353;28;96272;-76
2022/04/13 03:53:32;;;;;;;37.20;18.58;;;;;;;;;;4991657;28;95448;-76
2022/04/13 03:55:58;;;;;;;28.30;17.52;;;;;;;;;;4978260;28;96855;-76
2022/04/13 03:58:27;;;;;;;31.23;17.35;;;;;;;;;;4978483;28;97418;-76
2022/04/13 04:00:53;;;;;;;37.38;18.75;;;;;;;;;;4991471;28;95404;-78
2022/04/13 04:03:37;;;;;;;37.25;18.25;;;;;;;;;;4991506;28;95299;-78
2022/04/13 04:06:04;;;;;;;29.50;17.02;;;;;;;;;;4979733;28;96857;-76
2022/04/13 04:08:32;;;;;;;36.63;17.13;;;;;;;;;;4971824;28;97172;-77
2022/04/13 04:10:58;;;;;;;27.95;16.20;;;;;;;;;;4971059;28;97413;-77
2022/04/13 04:13:25;;;;;;;31.15;16.63;;;;;;;;;;4970806;28;95939;-78
2022/04/13 04:15:51;;;;;;;37.30;15.30;;;;;;;;;;4982676;28;96921;-77
2022/04/13 04:18:17;;;;;;;28.70;16.55;;;;;;;;;;4990750;28;97620;-76
2022/04/13 04:20:45;;;;;;;29.48;15.30;;;;;;;;;;4990848;28;95912;-79
2022/04/13 04:23:11;;;;;;;31.58;14.98;;;;;;;;;;4987941;28;96918;-78
2022/04/13 04:25:37;;;;;;;27.58;14.80;;;;;;;;;;4973991;28;97379;-80
2022/04/13 04:30:48;;;;;;;25.52;14.25;;;;;;;;;;4990977;28;97588;-78
2022/04/13 19:42:29;;;;;;;32.45;17.48;;;;;;;;;;5007070;28;95948;-78
2022/04/13 19:44:58;;;;;;;29.92;15.82;;;;;;;;;;4999622;28;97688;-78
2022/04/13 19:47:28;;;;;;;43.67;18.67;;;;;;;;;;4986717;28;95306;-80
2022/04/13 19:49:54;;;;;;;39.80;18.52;;;;;;;;;;4992281;28;96791;-80
2022/04/13 19:52:22;;;;;;;55.08;18.33;;;;;;;;;;5001628;28;96138;-79
2022/04/13 19:54:49;;;;;;;35.55;17.58;;;;;;;;;;5004090;28;95397;-80
2022/04/13 19:57:16;;;;;;;56.65;19.23;;;;;;;;;;5003411;28;95604;-79
2022/04/13 19:59:42;;;;;;;56.38;19.95;;;;;;;;;;5004602;28;97276;-79
2022/04/13 20:02:08;;;;;;;36.65;19.05;;;;;;;;;;4999912;28;95497;-78
2022/04/13 20:04:35;;;;;;;34.63;19.92;;;;;;;;;;5002015;28;97282;-80
2022/04/13 20:07:02;;;;;;;37.78;21.48;;;;;;;;;;5004434;28;95642;-79
2022/04/13 20:09:29;;;;;;;74.38;22.70;;;;;;;;;;5004827;28;96905;-79
2022/04/13 20:11:57;;;;;;;55.55;22.52;;;;;;;;;;5002069;28;97511;-79
2022/04/13 20:14:24;;;;;;;47.95;21.45;;;;;;;;;;5001346;28;95501;-78
2022/04/13 20:16:50;;;;;;;123.68;24.95;;;;;;;;;;5022409;28;96756;-79
2022/04/13 20:19:17;;;;;;;136.32;25.58;;;;;;;;;;5006118;27;97655;-79
2022/04/13 20:21:44;;;;;;;112.32;24.80;;;;;;;;;;5003657;28;95553;-78
2022/04/13 20:24:10;;;;;;;66.03;23.40;;;;;;;;;;5004498;28;97344;-79
2022/04/13 20:26:36;;;;;;;57.85;23.52;;;;;;;;;;5003958;28;95378;-78
2022/04/13 20:29:03;;;;;;;67.95;23.60;;;;;;;;;;5003676;28;96968;-78
2022/04/13 20:31:29;;;;;;;54.05;23.83;;;;;;;;;;5003539;28;97427;-80
2022/04/13 20:33:57;;;;;;;55.03;23.73;;;;;;;;;;4993281;28;95608;-79
2022/04/13 20:36:24;;;;;;;43.10;23.42;;;;;;;;;;5003853;28;96763;-78
2022/04/13 20:38:55;;;;;;;56.38;23.50;;;;;;;;;;5003320;28;97447;-78
2022/04/13 20:41:21;;;;;;;45.15;24.42;;;;;;;;;;4984534;28;95291;-78
2022/04/13 20:43:48;;;;;;;55.88;25.23;;;;;;;;;;4996754;28;97001;-79
2022/04/13 20:46:14;;;;;;;48.95;24.23;;;;;;;;;;5005113;28;97823;-78
2022/04/13 20:51:44;;;;;;;73.78;24.98;;;;;;;;;;5005489;28;95585;-79
2022/04/13 20:54:12;;;;;;;80.35;25.45;;;;;;;;;;4989175;28;96192;-81
2022/04/13 20:56:38;;;;;;;46.97;24.73;;;;;;;;;;4989381;28;95750;-79
2022/04/13 20:59:05;;;;;;;43.03;25.45;;;;;;;;;;4987631;28;96211;-80
2022/04/13 21:01:31;;;;;;;56.33;23.58;;;;;;;;;;4979301;28;96838;-80
2022/04/13 21:03:58;;;;;;;82.03;25.33;;;;;;;;;;4976365;28;98782;-78
2022/04/13 21:06:29;;;;;;;45.08;25.50;;;;;;;;;;4970358;28;97269;-79
2022/04/13 21:08:59;;;;;;;76.28;27.40;;;;;;;;;;4973654;28;95595;-79
2022/04/13 21:11:25;;;;;;;47.53;25.90;;;;;;;;;;4970134;28;97295;-80
2022/04/13 21:13:52;;;;;;;50.40;26.02;;;;;;;;;;4976834;28;95520;-79
2022/04/13 21:16:19;;;;;;;51.85;27.60;;;;;;;;;;4988583;28;96824;-79
2022/04/13 21:18:45;;;;;;;47.28;25.75;;;;;;;;;;4971614;28;97641;-79
2022/04/13 21:21:11;;;;;;;44.03;25.48;;;;;;;;;;4983208;28;95764;-79
2022/04/13 21:23:38;;;;;;;45.50;25.40;;;;;;;;;;4990773;28;96556;-77
2022/04/13 21:26:06;;;;;;;51.92;26.73;;;;;;;;;;5000199;28;97555;-77
2022/04/13 21:28:32;;;;;;;201.75;33.83;;;;;;;;;;5001754;28;95875;-78
2022/04/13 21:30:59;;;;;;;44.75;25.02;;;;;;;;;;4991392;28;97211;-78
2022/04/13 21:33:25;;;;;;;58.38;24.65;;;;;;;;;;4984232;28;96020;-78
2022/04/13 21:35:51;;;;;;;44.08;26.42;;;;;;;;;;4989342;28;96896;-78
2022/04/13 21:38:18;;;;;;;56.47;27.00;;;;;;;;;;4990385;28;97301;-78
2022/04/13 21:40:44;;;;;;;103.45;28.88;;;;;;;;;;4996494;28;96297;-78
2022/04/13 21:43:10;;;;;;;65.38;25.42;;;;;;;;;;4969008;28;97267;-78
2022/04/13 21:45:37;;;;;;;42.28;25.42;;;;;;;;;;4970010;28;97293;-78
2022/04/13 21:48:04;;;;;;;48.05;26.42;;;;;;;;;;4969468;28;95600;-78
2022/04/13 21:50:30;;;;;;;49.40;26.00;;;;;;;;;;4971410;28;97111;-78
2022/04/13 21:52:59;;;;;;;50.42;26.85;;;;;;;;;;4980195;28;95283;-77
2022/04/13 21:55:26;;;;;;;52.40;25.92;;;;;;;;;;4970087;28;96757;-79
2022/04/13 21:57:55;;;;;;;40.45;22.52;;;;;;;;;;4970381;28;97851;-79
2022/04/13 22:00:44;;;;;;;37.80;21.35;;;;;;;;;;4970074;28;95584;-79
2022/04/13 22:03:11;;;;;;;33.85;19.45;;;;;;;;;;4971688;28;96260;-79
2022/04/13 22:05:55;;;;;;;35.08;22.45;;;;;;;;;;4988928;28;96600;-79
2022/04/13 22:08:22;;;;;;;78.82;23.70;;;;;;;;;;5005817;28;96501;-80
2022/04/13 22:10:49;;;;;;;78.75;25.50;;;;;;;;;;4995358;28;96997;-80
2022/04/13 22:13:16;;;;;;;52.13;23.60;;;;;;;;;;4972894;28;97408;-80
2022/04/13 22:15:43;;;;;;;90.47;26.50;;;;;;;;;;4986857;28;96790;-79
2022/04/13 22:18:14;;;;;;;68.35;26.27;;;;;;;;;;4989512;28;97132;-79
2022/04/13 22:20:44;;;;;;;45.15;25.35;;;;;;;;;;4989404;28;95251;-79
2022/04/13 22:23:15;;;;;;;61.53;27.67;;;;;;;;;;4988660;28;96783;-79
2022/04/13 22:25:43;;;;;;;56.08;26.63;;;;;;;;;;4989489;28;97759;-78
2022/04/13 22:28:10;;;;;;;53.72;27.52;;;;;;;;;;4989635;28;95324;-78
2022/04/13 22:30:37;;;;;;;47.95;26.92;;;;;;;;;;4982144;28;96738;-79
2022/04/13 22:33:03;;;;;;;48.90;26.92;;;;;;;;;;4969306;28;97640;-80
2022/04/13 22:35:30;;;;;;;51.08;25.65;;;;;;;;;;4971581;28;95518;-79
2022/04/13 22:37:56;;;;;;;57.42;27.00;;;;;;;;;;4968886;28;97495;-79
2022/04/13 22:40:23;;;;;;;112.40;29.13;;;;;;;;;;4974736;28;95270;-78
2022/04/13 22:42:49;;;;;;;74.47;24.52;;;;;;;;;;4989498;28;96865;-79
2022/04/13 22:45:16;;;;;;;66.07;23.55;;;;;;;;;;4988526;28;97721;-78
2022/04/13 22:47:42;;;;;;;48.58;26.25;;;;;;;;;;4989746;28;95993;-79
2022/04/13 22:50:08;;;;;;;47.40;25.45;;;;;;;;;;4991079;28;97277;-78
2022/04/13 22:52:35;;;;;;;47.72;25.70;;;;;;;;;;4968938;28;97565;-78
2022/04/13 22:55:01;;;;;;;43.95;24.98;;;;;;;;;;4970005;28;95722;-79
2022/04/13 22:57:27;;;;;;;77.07;24.58;;;;;;;;;;4972484;28;96800;-79
2022/04/13 22:59:54;;;;;;;126.38;29.15;;;;;;;;;;4969205;28;95404;-79
2022/04/13 23:02:20;;;;;;;44.25;24.38;;;;;;;;;;4969118;28;96831;-80
2022/04/13 23:04:46;;;;;;;45.22;22.15;;;;;;;;;;4969650;28;97400;-80
2022/04/13 23:07:13;;;;;;;35.45;21.15;;;;;;;;;;4969318;28;95977;-79
2022/04/13 23:09:40;;;;;;;41.83;21.23;;;;;;;;;;4970185;28;97065;-78
2022/04/13 23:12:08;;;;;;;44.80;20.50;;;;;;;;;;4968174;28;97162;-78
2022/04/13 23:14:34;;;;;;;35.67;19.92;;;;;;;;;;4974789;28;95352;-78
2022/04/13 23:17:01;;;;;;;34.72;19.52;;;;;;;;;;4988882;28;97022;-78
2022/04/13 23:19:27;;;;;;;34.88;19.23;;;;;;;;;;5010323;28;97830;-78
2022/04/13 23:21:53;;;;;;;35.55;19.67;;;;;;;;;;5001961;28;96752;-77
2022/04/13 23:24:20;;;;;;;31.02;18.73;;;;;;;;;;4988005;28;97405;-78
2022/04/13 23:26:46;;;;;;;30.90;18.52;;;;;;;;;;4996575;28;95281;-77
2022/04/13 23:29:12;;;;;;;28.38;16.52;;;;;;;;;;4988573;28;97136;-78
2022/04/13 23:31:38;;;;;;;31.45;16.70;;;;;;;;;;4985863;28;97561;-77
2022/04/13 23:34:05;;;;;;;28.60;17.35;;;;;;;;;;4968539;28;95369;-78
2022/04/13 23:36:31;;;;;;;30.70;18.67;;;;;;;;;;4968988;28;96585;-77
2022/04/13 23:38:58;;;;;;;35.42;20.02;;;;;;;;;;4976834;28;97123;-78
2022/04/13 23:41:42;;;;;;;37.00;21.02;;;;;;;;;;4989991;28;95726;-78
2022/04/13 23:44:08;;;;;;;35.00;19.73;;;;;;;;;;4988261;28;97463;-78
2022/04/13 23:46:34;;;;;;;43.35;21.05;;;;;;;;;;4988678;28;95331;-78
2022/04/13 23:49:01;;;;;;;33.45;20.15;;;;;;;;;;4988059;28;97032;-78
2022/04/13 23:51:28;;;;;;;60.20;23.90;;;;;;;;;;4986564;28;97485;-78
2022/04/13 23:53:54;;;;;;;38.30;23.13;;;;;;;;;;4991528;28;95855;-78
2022/04/13 23:56:20;;;;;;;42.40;23.23;;;;;;;;;;4986464;28;96873;-78
2022/04/13 23:58:47;;;;;;;46.10;24.42;;;;;;;;;;4968676;28;97277;-79
